sensor_id;sensor_type;location;lat;lon;timestamp;P1;durP1;ratioP1;P2;durP2;ratioP2
43670;SDS011;29267;50.906;7.248;2023-01-13T00:01:08;0.50;;;0.50;;
43670;SDS011;29267;50.906;7.248;2023-01-13T00:03:35;0.30;;;0.30;;
43670;SDS011;29267;50.906;7.248;2023-01-13T00:06:01;0.25;;;0.25;;
43670;SDS011;29267;50.906;7.248;2023-01-13T00:08:27;0.40;;;0.40;;
43670;SDS011;29267;50.906;7.248;2023-01-13T00:10:53;0.30;;;0.30;;
43670;SDS011;29267;50.906;7.248;2023-01-13T00:13:19;0.43;;;0.40;;
43670;SDS011;29267;50.906;7.248;2023-01-13T00:16:01;0.30;;;0.30;;
43670;SDS011;29267;50.906;7.248;2023-01-13T00:18:28;0.43;;;0.30;;
43670;SDS011;29267;50.906;7.248;2023-01-13T00:20:58;0.40;;;0.40;;
43670;SDS011;29267;50.906;7.248;2023-01-13T00:23:38;0.73;;;0.60;;
43670;SDS011;29267;50.906;7.248;2023-01-13T00:26:08;0.57;;;0.57;;
43670;SDS011;29267;50.906;7.248;2023-01-13T00:28:36;0.30;;;0.30;;
43670;SDS011;29267;50.906;7.248;2023-01-13T00:31:05;0.32;;;0.32;;
43670;SDS011;29267;50.906;7.248;2023-01-13T00:33:38;2.80;;;0.60;;
43670;SDS011;29267;50.906;7.248;2023-01-13T00:36:05;0.40;;;0.40;;
43670;SDS011;29267;50.906;7.248;2023-01-13T00:38:32;0.40;;;0.40;;
43670;SDS011;29267;50.906;7.248;2023-01-13T00:41:06;0.52;;;0.50;;
43670;SDS011;29267;50.906;7.248;2023-01-13T00:43:42;1.05;;;0.40;;
43670;SDS011;29267;50.906;7.248;2023-01-13T00:46:09;0.73;;;0.60;;
43670;SDS011;29267;50.906;7.248;2023-01-13T00:48:37;0.30;;;0.30;;
43670;SDS011;29267;50.906;7.248;2023-01-13T00:51:06;0.50;;;0.40;;
43670;SDS011;29267;50.906;7.248;2023-01-13T00:53:35;0.30;;;0.30;;
43670;SDS011;29267;50.906;7.248;2023-01-13T00:56:16;0.30;;;0.30;;
43670;SDS011;29267;50.906;7.248;2023-01-13T00:58:44;0.28;;;0.28;;
43670;SDS011;29267;50.906;7.248;2023-01-13T01:01:11;0.30;;;0.30;;
43670;SDS011;29267;50.906;7.248;2023-01-13T01:03:41;0.30;;;0.30;;
43670;SDS011;29267;50.906;7.248;2023-01-13T01:06:09;0.47;;;0.30;;
43670;SDS011;29267;50.906;7.248;2023-01-13T01:08:37;0.65;;;0.30;;
43670;SDS011;29267;50.906;7.248;2023-01-13T01:11:07;0.95;;;0.45;;
43670;SDS011;29267;50.906;7.248;2023-01-13T01:13:38;0.70;;;0.50;;
43670;SDS011;29267;50.906;7.248;2023-01-13T01:16:07;0.65;;;0.30;;
43670;SDS011;29267;50.906;7.248;2023-01-13T01:18:38;1.25;;;0.40;;
43670;SDS011;29267;50.906;7.248;2023-01-13T01:21:05;1.73;;;0.28;;
43670;SDS011;29267;50.906;7.248;2023-01-13T01:23:32;1.50;;;0.90;;
43670;SDS011;29267;50.906;7.248;2023-01-13T01:25:59;1.35;;;0.50;;
43670;SDS011;29267;50.906;7.248;2023-01-13T01:28:25;1.42;;;0.52;;
43670;SDS011;29267;50.906;7.248;2023-01-13T01:30:51;0.93;;;0.35;;
43670;SDS011;29267;50.906;7.248;2023-01-13T01:33:18;3.22;;;0.50;;
43670;SDS011;29267;50.906;7.248;2023-01-13T01:35:44;3.10;;;0.38;;
43670;SDS011;29267;50.906;7.248;2023-01-13T01:38:09;1.20;;;0.30;;
43670;SDS011;29267;50.906;7.248;2023-01-13T01:40:35;1.70;;;0.60;;
43670;SDS011;29267;50.906;7.248;2023-01-13T01:43:00;0.40;;;0.40;;
43670;SDS011;29267;50.906;7.248;2023-01-13T01:45:44;2.30;;;0.50;;
43670;SDS011;29267;50.906;7.248;2023-01-13T01:48:10;2.35;;;0.45;;
43670;SDS011;29267;50.906;7.248;2023-01-13T01:50:36;4.82;;;0.40;;
43670;SDS011;29267;50.906;7.248;2023-01-13T01:53:13;1.42;;;0.43;;
43670;SDS011;29267;50.906;7.248;2023-01-13T01:55:42;3.42;;;0.50;;
43670;SDS011;29267;50.906;7.248;2023-01-13T01:58:17;2.45;;;0.73;;
43670;SDS011;29267;50.906;7.248;2023-01-13T02:00:51;1.17;;;0.50;;
43670;SDS011;29267;50.906;7.248;2023-01-13T02:03:16;3.95;;;0.60;;
43670;SDS011;29267;50.906;7.248;2023-01-13T02:05:42;4.20;;;1.13;;
43670;SDS011;29267;50.906;7.248;2023-01-13T02:08:09;6.18;;;0.88;;
43670;SDS011;29267;50.906;7.248;2023-01-13T02:10:37;1.45;;;0.88;;
43670;SDS011;29267;50.906;7.248;2023-01-13T02:13:05;5.72;;;0.90;;
43670;SDS011;29267;50.906;7.248;2023-01-13T02:18:25;2.47;;;0.90;;
43670;SDS011;29267;50.906;7.248;2023-01-13T02:23:55;2.33;;;0.77;;
43670;SDS011;29267;50.906;7.248;2023-01-13T02:29:44;1.80;;;0.55;;
43670;SDS011;29267;50.906;7.248;2023-01-13T02:32:40;1.38;;;0.40;;
43670;SDS011;29267;50.906;7.248;2023-01-13T02:35:22;5.35;;;0.90;;
43670;SDS011;29267;50.906;7.248;2023-01-13T02:37:52;7.78;;;0.75;;
43670;SDS011;29267;50.906;7.248;2023-01-13T02:48:21;2.78;;;0.70;;
43670;SDS011;29267;50.906;7.248;2023-01-13T02:50:55;4.05;;;0.45;;
43670;SDS011;29267;50.906;7.248;2023-01-13T02:53:37;0.40;;;0.40;;
43670;SDS011;29267;50.906;7.248;2023-01-13T02:56:07;3.53;;;0.52;;
43670;SDS011;29267;50.906;7.248;2023-01-13T02:58:35;3.13;;;0.93;;
43670;SDS011;29267;50.906;7.248;2023-01-13T03:01:03;0.60;;;0.30;;
43670;SDS011;29267;50.906;7.248;2023-01-13T03:03:29;1.10;;;0.50;;
43670;SDS011;29267;50.906;7.248;2023-01-13T03:05:56;1.40;;;0.45;;
43670;SDS011;29267;50.906;7.248;2023-01-13T03:08:37;1.20;;;0.52;;
43670;SDS011;29267;50.906;7.248;2023-01-13T03:11:11;2.05;;;0.60;;
43670;SDS011;29267;50.906;7.248;2023-01-13T03:13:59;1.35;;;0.32;;
43670;SDS011;29267;50.906;7.248;2023-01-13T03:16:55;4.00;;;0.63;;
43670;SDS011;29267;50.906;7.248;2023-01-13T03:22:02;1.42;;;0.50;;
43670;SDS011;29267;50.906;7.248;2023-01-13T03:27:29;2.78;;;0.63;;
43670;SDS011;29267;50.906;7.248;2023-01-13T03:30:08;1.85;;;0.50;;
43670;SDS011;29267;50.906;7.248;2023-01-13T03:32:49;1.75;;;0.40;;
43670;SDS011;29267;50.906;7.248;2023-01-13T03:35:23;6.15;;;0.60;;
43670;SDS011;29267;50.906;7.248;2023-01-13T03:38:02;2.00;;;0.50;;
43670;SDS011;29267;50.906;7.248;2023-01-13T03:41:04;0.40;;;0.40;;
43670;SDS011;29267;50.906;7.248;2023-01-13T03:43:41;1.70;;;0.40;;
43670;SDS011;29267;50.906;7.248;2023-01-13T03:46:35;2.17;;;0.55;;
43670;SDS011;29267;50.906;7.248;2023-01-13T03:49:07;1.05;;;0.43;;
43670;SDS011;29267;50.906;7.248;2023-01-13T03:51:37;2.78;;;0.43;;
43670;SDS011;29267;50.906;7.248;2023-01-13T03:54:06;1.73;;;0.50;;
43670;SDS011;29267;50.906;7.248;2023-01-13T03:56:37;0.20;;;0.20;;
43670;SDS011;29267;50.906;7.248;2023-01-13T03:59:07;1.23;;;0.35;;
43670;SDS011;29267;50.906;7.248;2023-01-13T04:01:47;0.75;;;0.43;;
43670;SDS011;29267;50.906;7.248;2023-01-13T04:04:32;4.45;;;0.60;;
43670;SDS011;29267;50.906;7.248;2023-01-13T04:09:36;0.63;;;0.40;;
43670;SDS011;29267;50.906;7.248;2023-01-13T04:14:52;1.35;;;0.40;;
43670;SDS011;29267;50.906;7.248;2023-01-13T04:17:19;3.80;;;0.55;;
43670;SDS011;29267;50.906;7.248;2023-01-13T04:19:45;2.22;;;0.75;;
43670;SDS011;29267;50.906;7.248;2023-01-13T04:22:11;4.75;;;1.02;;
43670;SDS011;29267;50.906;7.248;2023-01-13T04:24:36;2.72;;;0.75;;
43670;SDS011;29267;50.906;7.248;2023-01-13T04:27:02;2.92;;;0.90;;
43670;SDS011;29267;50.906;7.248;2023-01-13T04:29:28;4.25;;;0.82;;
43670;SDS011;29267;50.906;7.248;2023-01-13T04:31:53;1.73;;;0.90;;
43670;SDS011;29267;50.906;7.248;2023-01-13T04:34:19;5.88;;;0.60;;
43670;SDS011;29267;50.906;7.248;2023-01-13T04:36:45;6.20;;;0.98;;
43670;SDS011;29267;50.906;7.248;2023-01-13T04:39:10;1.48;;;0.55;;
43670;SDS011;29267;50.906;7.248;2023-01-13T04:41:36;4.28;;;0.82;;
43670;SDS011;29267;50.906;7.248;2023-01-13T04:44:34;9.00;;;1.00;;
43670;SDS011;29267;50.906;7.248;2023-01-13T04:47:00;3.05;;;0.85;;
43670;SDS011;29267;50.906;7.248;2023-01-13T04:49:26;1.63;;;0.57;;
43670;SDS011;29267;50.906;7.248;2023-01-13T04:51:52;8.13;;;1.00;;
43670;SDS011;29267;50.906;7.248;2023-01-13T04:54:17;3.03;;;1.17;;
43670;SDS011;29267;50.906;7.248;2023-01-13T04:56:43;9.55;;;1.35;;
43670;SDS011;29267;50.906;7.248;2023-01-13T04:59:10;4.32;;;0.50;;
43670;SDS011;29267;50.906;7.248;2023-01-13T05:01:37;7.75;;;1.08;;
43670;SDS011;29267;50.906;7.248;2023-01-13T05:04:03;9.63;;;0.85;;
43670;SDS011;29267;50.906;7.248;2023-01-13T05:06:28;4.50;;;0.82;;
43670;SDS011;29267;50.906;7.248;2023-01-13T05:08:54;6.60;;;0.77;;
43670;SDS011;29267;50.906;7.248;2023-01-13T05:11:20;9.50;;;1.00;;
43670;SDS011;29267;50.906;7.248;2023-01-13T05:14:04;5.38;;;1.98;;
43670;SDS011;29267;50.906;7.248;2023-01-13T05:16:52;12.88;;;1.65;;
43670;SDS011;29267;50.906;7.248;2023-01-13T05:19:26;13.63;;;1.88;;
43670;SDS011;29267;50.906;7.248;2023-01-13T05:21:53;7.97;;;1.70;;
43670;SDS011;29267;50.906;7.248;2023-01-13T05:27:22;15.65;;;1.40;;
43670;SDS011;29267;50.906;7.248;2023-01-13T05:29:48;11.27;;;2.15;;
43670;SDS011;29267;50.906;7.248;2023-01-13T05:32:13;6.32;;;1.50;;
43670;SDS011;29267;50.906;7.248;2023-01-13T05:34:39;7.85;;;1.52;;
43670;SDS011;29267;50.906;7.248;2023-01-13T05:37:04;8.82;;;2.00;;
43670;SDS011;29267;50.906;7.248;2023-01-13T05:39:31;15.15;;;1.25;;
43670;SDS011;29267;50.906;7.248;2023-01-13T05:42:17;7.45;;;1.20;;
43670;SDS011;29267;50.906;7.248;2023-01-13T05:45:01;6.40;;;1.10;;
43670;SDS011;29267;50.906;7.248;2023-01-13T05:47:27;11.25;;;1.77;;
43670;SDS011;29267;50.906;7.248;2023-01-13T05:49:53;9.68;;;1.80;;
43670;SDS011;29267;50.906;7.248;2023-01-13T05:52:18;7.35;;;1.63;;
43670;SDS011;29267;50.906;7.248;2023-01-13T05:54:44;7.43;;;1.25;;
43670;SDS011;29267;50.906;7.248;2023-01-13T05:57:09;11.77;;;1.60;;
43670;SDS011;29267;50.906;7.248;2023-01-13T05:59:35;10.82;;;1.10;;
43670;SDS011;29267;50.906;7.248;2023-01-13T06:02:00;6.85;;;1.63;;
43670;SDS011;29267;50.906;7.248;2023-01-13T06:04:26;13.80;;;1.67;;
43670;SDS011;29267;50.906;7.248;2023-01-13T06:06:52;11.80;;;1.38;;
43670;SDS011;29267;50.906;7.248;2023-01-13T06:09:17;9.55;;;1.80;;
43670;SDS011;29267;50.906;7.248;2023-01-13T06:11:45;9.93;;;2.45;;
43670;SDS011;29267;50.906;7.248;2023-01-13T06:14:10;15.82;;;2.33;;
43670;SDS011;29267;50.906;7.248;2023-01-13T06:16:36;7.15;;;1.40;;
43670;SDS011;29267;50.906;7.248;2023-01-13T06:19:02;8.82;;;1.10;;
43670;SDS011;29267;50.906;7.248;2023-01-13T06:21:32;5.78;;;1.25;;
43670;SDS011;29267;50.906;7.248;2023-01-13T06:24:01;16.20;;;2.13;;
43670;SDS011;29267;50.906;7.248;2023-01-13T06:26:27;5.95;;;1.35;;
43670;SDS011;29267;50.906;7.248;2023-01-13T06:28:55;16.08;;;2.15;;
43670;SDS011;29267;50.906;7.248;2023-01-13T06:31:21;12.20;;;1.50;;
43670;SDS011;29267;50.906;7.248;2023-01-13T06:33:48;6.57;;;1.52;;
43670;SDS011;29267;50.906;7.248;2023-01-13T06:36:24;14.23;;;2.53;;
43670;SDS011;29267;50.906;7.248;2023-01-13T06:38:55;8.20;;;1.60;;
43670;SDS011;29267;50.906;7.248;2023-01-13T06:41:23;7.18;;;1.15;;
43670;SDS011;29267;50.906;7.248;2023-01-13T06:44:11;4.68;;;1.20;;
43670;SDS011;29267;50.906;7.248;2023-01-13T06:46:36;7.57;;;1.70;;
43670;SDS011;29267;50.906;7.248;2023-01-13T06:49:02;7.63;;;1.63;;
43670;SDS011;29267;50.906;7.248;2023-01-13T06:51:28;5.22;;;1.33;;
43670;SDS011;29267;50.906;7.248;2023-01-13T06:53:53;8.98;;;1.30;;
43670;SDS011;29267;50.906;7.248;2023-01-13T06:56:19;9.57;;;1.42;;
43670;SDS011;29267;50.906;7.248;2023-01-13T06:58:44;6.10;;;1.48;;
43670;SDS011;29267;50.906;7.248;2023-01-13T07:01:10;11.32;;;1.35;;
43670;SDS011;29267;50.906;7.248;2023-01-13T07:06:03;8.57;;;2.17;;
43670;SDS011;29267;50.906;7.248;2023-01-13T07:08:29;11.70;;;1.42;;
43670;SDS011;29267;50.906;7.248;2023-01-13T07:10:55;12.32;;;1.67;;
43670;SDS011;29267;50.906;7.248;2023-01-13T07:13:20;6.63;;;1.05;;
43670;SDS011;29267;50.906;7.248;2023-01-13T07:16:05;3.38;;;1.33;;
43670;SDS011;29267;50.906;7.248;2023-01-13T07:18:32;7.13;;;2.05;;
43670;SDS011;29267;50.906;7.248;2023-01-13T07:21:00;4.78;;;1.35;;
43670;SDS011;29267;50.906;7.248;2023-01-13T07:23:28;7.60;;;1.35;;
43670;SDS011;29267;50.906;7.248;2023-01-13T07:25:56;5.32;;;1.02;;
43670;SDS011;29267;50.906;7.248;2023-01-13T07:28:23;6.90;;;2.00;;
43670;SDS011;29267;50.906;7.248;2023-01-13T07:30:49;10.27;;;1.83;;
43670;SDS011;29267;50.906;7.248;2023-01-13T07:33:15;5.75;;;1.38;;
43670;SDS011;29267;50.906;7.248;2023-01-13T07:35:42;7.55;;;1.95;;
43670;SDS011;29267;50.906;7.248;2023-01-13T07:38:09;9.80;;;2.22;;
43670;SDS011;29267;50.906;7.248;2023-01-13T07:40:34;12.75;;;1.73;;
43670;SDS011;29267;50.906;7.248;2023-01-13T07:43:00;6.50;;;1.38;;
43670;SDS011;29267;50.906;7.248;2023-01-13T07:48:10;1.25;;;0.50;;
43670;SDS011;29267;50.906;7.248;2023-01-13T07:50:36;3.85;;;1.17;;
43670;SDS011;29267;50.906;7.248;2023-01-13T07:53:01;4.53;;;2.00;;
43670;SDS011;29267;50.906;7.248;2023-01-13T07:55:27;7.15;;;3.08;;
43670;SDS011;29267;50.906;7.248;2023-01-13T07:57:53;9.00;;;1.98;;
43670;SDS011;29267;50.906;7.248;2023-01-13T08:00:18;3.17;;;0.80;;
43670;SDS011;29267;50.906;7.248;2023-01-13T08:02:44;2.50;;;0.80;;
43670;SDS011;29267;50.906;7.248;2023-01-13T08:05:10;8.02;;;2.40;;
43670;SDS011;29267;50.906;7.248;2023-01-13T08:07:35;8.57;;;2.75;;
43670;SDS011;29267;50.906;7.248;2023-01-13T08:10:02;3.88;;;0.90;;
43670;SDS011;29267;50.906;7.248;2023-01-13T08:12:27;9.77;;;2.22;;
43670;SDS011;29267;50.906;7.248;2023-01-13T08:15:12;9.90;;;2.53;;
43670;SDS011;29267;50.906;7.248;2023-01-13T08:17:37;7.13;;;1.30;;
43670;SDS011;29267;50.906;7.248;2023-01-13T08:20:03;10.85;;;1.40;;
43670;SDS011;29267;50.906;7.248;2023-01-13T08:22:29;6.75;;;1.13;;
43670;SDS011;29267;50.906;7.248;2023-01-13T08:24:57;7.75;;;3.55;;
43670;SDS011;29267;50.906;7.248;2023-01-13T08:27:25;8.38;;;4.43;;
43670;SDS011;29267;50.906;7.248;2023-01-13T08:29:51;11.18;;;4.32;;
43670;SDS011;29267;50.906;7.248;2023-01-13T08:32:16;11.77;;;1.92;;
43670;SDS011;29267;50.906;7.248;2023-01-13T08:34:42;4.90;;;2.00;;
43670;SDS011;29267;50.906;7.248;2023-01-13T08:37:08;12.98;;;4.25;;
43670;SDS011;29267;50.906;7.248;2023-01-13T08:39:33;10.23;;;4.18;;
43670;SDS011;29267;50.906;7.248;2023-01-13T08:42:00;10.70;;;3.03;;
43670;SDS011;29267;50.906;7.248;2023-01-13T08:44:29;3.13;;;1.67;;
43670;SDS011;29267;50.906;7.248;2023-01-13T08:46:55;12.48;;;4.28;;
43670;SDS011;29267;50.906;7.248;2023-01-13T08:49:22;8.90;;;2.45;;
43670;SDS011;29267;50.906;7.248;2023-01-13T08:51:48;10.20;;;4.85;;
43670;SDS011;29267;50.906;7.248;2023-01-13T08:54:14;10.73;;;4.20;;
43670;SDS011;29267;50.906;7.248;2023-01-13T08:56:41;19.52;;;5.53;;
43670;SDS011;29267;50.906;7.248;2023-01-13T08:59:11;7.65;;;2.63;;
43670;SDS011;29267;50.906;7.248;2023-01-13T09:01:41;21.17;;;8.52;;
43670;SDS011;29267;50.906;7.248;2023-01-13T09:04:11;13.57;;;3.60;;
43670;SDS011;29267;50.906;7.248;2023-01-13T09:06:41;6.88;;;2.95;;
43670;SDS011;29267;50.906;7.248;2023-01-13T09:09:07;6.75;;;1.60;;
43670;SDS011;29267;50.906;7.248;2023-01-13T09:11:34;10.80;;;2.67;;
43670;SDS011;29267;50.906;7.248;2023-01-13T09:14:22;8.38;;;1.42;;
43670;SDS011;29267;50.906;7.248;2023-01-13T09:16:50;7.43;;;2.38;;
43670;SDS011;29267;50.906;7.248;2023-01-13T09:19:16;9.25;;;2.30;;
43670;SDS011;29267;50.906;7.248;2023-01-13T09:21:41;21.40;;;4.30;;
43670;SDS011;29267;50.906;7.248;2023-01-13T09:24:07;12.80;;;4.85;;
43670;SDS011;29267;50.906;7.248;2023-01-13T09:26:32;19.02;;;6.38;;
43670;SDS011;29267;50.906;7.248;2023-01-13T09:28:58;14.25;;;4.85;;
43670;SDS011;29267;50.906;7.248;2023-01-13T09:31:24;21.27;;;5.68;;
43670;SDS011;29267;50.906;7.248;2023-01-13T09:33:49;15.93;;;5.57;;
43670;SDS011;29267;50.906;7.248;2023-01-13T09:36:33;17.15;;;5.68;;
43670;SDS011;29267;50.906;7.248;2023-01-13T09:38:59;24.65;;;7.50;;
43670;SDS011;29267;50.906;7.248;2023-01-13T09:41:25;17.10;;;3.60;;
43670;SDS011;29267;50.906;7.248;2023-01-13T09:44:46;12.80;;;2.92;;
43670;SDS011;29267;50.906;7.248;2023-01-13T09:47:36;11.95;;;2.60;;
43670;SDS011;29267;50.906;7.248;2023-01-13T09:52:38;12.05;;;2.60;;
43670;SDS011;29267;50.906;7.248;2023-01-13T09:55:17;12.88;;;2.70;;
43670;SDS011;29267;50.906;7.248;2023-01-13T09:57:49;13.20;;;2.22;;
43670;SDS011;29267;50.906;7.248;2023-01-13T10:00:18;10.35;;;2.60;;
43670;SDS011;29267;50.906;7.248;2023-01-13T10:05:18;8.45;;;2.45;;
43670;SDS011;29267;50.906;7.248;2023-01-13T10:07:57;13.13;;;2.53;;
43670;SDS011;29267;50.906;7.248;2023-01-13T10:13:19;20.45;;;6.57;;
43670;SDS011;29267;50.906;7.248;2023-01-13T10:18:29;40.95;;;11.88;;
43670;SDS011;29267;50.906;7.248;2023-01-13T10:24:19;19.38;;;6.07;;
43670;SDS011;29267;50.906;7.248;2023-01-13T10:27:03;31.35;;;10.68;;
43670;SDS011;29267;50.906;7.248;2023-01-13T10:29:33;16.92;;;4.22;;
43670;SDS011;29267;50.906;7.248;2023-01-13T10:32:00;16.02;;;3.30;;
43670;SDS011;29267;50.906;7.248;2023-01-13T10:34:26;14.45;;;1.80;;
43670;SDS011;29267;50.906;7.248;2023-01-13T10:36:59;16.23;;;3.47;;
43670;SDS011;29267;50.906;7.248;2023-01-13T10:39:27;21.10;;;5.40;;
43670;SDS011;29267;50.906;7.248;2023-01-13T10:42:03;22.27;;;7.03;;
43670;SDS011;29267;50.906;7.248;2023-01-13T10:44:30;23.55;;;9.88;;
43670;SDS011;29267;50.906;7.248;2023-01-13T10:46:56;23.08;;;7.68;;
43670;SDS011;29267;50.906;7.248;2023-01-13T10:49:27;40.28;;;10.63;;
43670;SDS011;29267;50.906;7.248;2023-01-13T10:52:00;23.20;;;5.88;;
43670;SDS011;29267;50.906;7.248;2023-01-13T10:54:27;15.05;;;4.35;;
43670;SDS011;29267;50.906;7.248;2023-01-13T10:57:12;9.93;;;3.38;;
43670;SDS011;29267;50.906;7.248;2023-01-13T10:59:42;14.68;;;2.78;;
43670;SDS011;29267;50.906;7.248;2023-01-13T11:02:19;10.55;;;2.33;;
43670;SDS011;29267;50.906;7.248;2023-01-13T11:07:45;17.02;;;3.97;;
43670;SDS011;29267;50.906;7.248;2023-01-13T11:13:14;10.43;;;2.53;;
43670;SDS011;29267;50.906;7.248;2023-01-13T11:16:04;12.88;;;2.50;;
43670;SDS011;29267;50.906;7.248;2023-01-13T11:18:52;12.73;;;2.15;;
43670;SDS011;29267;50.906;7.248;2023-01-13T11:21:39;12.68;;;3.70;;
43670;SDS011;29267;50.906;7.248;2023-01-13T11:26:57;10.48;;;2.70;;
43670;SDS011;29267;50.906;7.248;2023-01-13T11:29:27;7.93;;;2.63;;
43670;SDS011;29267;50.906;7.248;2023-01-13T11:32:19;8.55;;;1.98;;
43670;SDS011;29267;50.906;7.248;2023-01-13T11:34:46;13.20;;;2.47;;
43670;SDS011;29267;50.906;7.248;2023-01-13T11:45:54;7.10;;;2.00;;
43670;SDS011;29267;50.906;7.248;2023-01-13T11:48:23;10.57;;;2.08;;
43670;SDS011;29267;50.906;7.248;2023-01-13T11:50:59;16.08;;;3.63;;
43670;SDS011;29267;50.906;7.248;2023-01-13T12:05:05;17.65;;;4.93;;
43670;SDS011;29267;50.906;7.248;2023-01-13T12:15:45;12.73;;;2.83;;
43670;SDS011;29267;50.906;7.248;2023-01-13T12:21:19;8.63;;;1.88;;
43670;SDS011;29267;50.906;7.248;2023-01-13T12:23:46;6.53;;;2.80;;
43670;SDS011;29267;50.906;7.248;2023-01-13T12:26:54;9.43;;;1.48;;
43670;SDS011;29267;50.906;7.248;2023-01-13T12:29:27;7.85;;;2.33;;
43670;SDS011;29267;50.906;7.248;2023-01-13T12:31:59;11.30;;;2.90;;
43670;SDS011;29267;50.906;7.248;2023-01-13T12:39:55;7.85;;;1.40;;
43670;SDS011;29267;50.906;7.248;2023-01-13T12:46:20;9.73;;;1.55;;
43670;SDS011;29267;50.906;7.248;2023-01-13T12:53:57;7.18;;;2.15;;
43670;SDS011;29267;50.906;7.248;2023-01-13T12:56:37;16.45;;;2.70;;
43670;SDS011;29267;50.906;7.248;2023-01-13T13:01:43;9.82;;;2.42;;
43670;SDS011;29267;50.906;7.248;2023-01-13T13:05:00;9.65;;;2.15;;
43670;SDS011;29267;50.906;7.248;2023-01-13T13:09:41;7.20;;;1.67;;
43670;SDS011;29267;50.906;7.248;2023-01-13T13:17:59;10.90;;;1.70;;
43670;SDS011;29267;50.906;7.248;2023-01-13T13:31:35;11.25;;;4.10;;
43670;SDS011;29267;50.906;7.248;2023-01-13T13:34:32;12.15;;;4.85;;
43670;SDS011;29267;50.906;7.248;2023-01-13T13:37:29;16.33;;;3.72;;
43670;SDS011;29267;50.906;7.248;2023-01-13T13:40:28;15.85;;;4.00;;
43670;SDS011;29267;50.906;7.248;2023-01-13T13:43:16;15.60;;;4.13;;
43670;SDS011;29267;50.906;7.248;2023-01-13T13:46:10;13.60;;;2.75;;
43670;SDS011;29267;50.906;7.248;2023-01-13T13:49:08;6.35;;;1.60;;
43670;SDS011;29267;50.906;7.248;2023-01-13T13:51:35;19.70;;;2.83;;
43670;SDS011;29267;50.906;7.248;2023-01-13T13:54:28;28.13;;;6.25;;
43670;SDS011;29267;50.906;7.248;2023-01-13T13:56:54;25.98;;;2.97;;
43670;SDS011;29267;50.906;7.248;2023-01-13T13:59:20;13.60;;;2.10;;
43670;SDS011;29267;50.906;7.248;2023-01-13T14:01:52;13.80;;;2.42;;
43670;SDS011;29267;50.906;7.248;2023-01-13T14:04:25;12.02;;;2.03;;
43670;SDS011;29267;50.906;7.248;2023-01-13T14:09:47;9.88;;;2.22;;
43670;SDS011;29267;50.906;7.248;2023-01-13T14:14:45;7.43;;;2.92;;
43670;SDS011;29267;50.906;7.248;2023-01-13T14:17:28;18.65;;;4.00;;
43670;SDS011;29267;50.906;7.248;2023-01-13T14:20:01;12.85;;;2.67;;
43670;SDS011;29267;50.906;7.248;2023-01-13T14:22:30;9.75;;;1.70;;
43670;SDS011;29267;50.906;7.248;2023-01-13T14:24:56;9.48;;;3.20;;
43670;SDS011;29267;50.906;7.248;2023-01-13T14:27:23;16.23;;;3.03;;
43670;SDS011;29267;50.906;7.248;2023-01-13T14:29:52;19.98;;;2.72;;
43670;SDS011;29267;50.906;7.248;2023-01-13T14:32:19;10.50;;;2.85;;
43670;SDS011;29267;50.906;7.248;2023-01-13T14:34:49;9.63;;;1.92;;
43670;SDS011;29267;50.906;7.248;2023-01-13T14:37:57;13.55;;;2.22;;
43670;SDS011;29267;50.906;7.248;2023-01-13T14:40:05;18.30;;;3.35;;
43670;SDS011;29267;50.906;7.248;2023-01-13T14:45:24;16.52;;;2.40;;
43670;SDS011;29267;50.906;7.248;2023-01-13T14:47:51;15.80;;;2.63;;
43670;SDS011;29267;50.906;7.248;2023-01-13T14:50:19;10.07;;;1.83;;
43670;SDS011;29267;50.906;7.248;2023-01-13T14:52:55;6.10;;;1.98;;
43670;SDS011;29267;50.906;7.248;2023-01-13T14:55:34;10.18;;;1.92;;
43670;SDS011;29267;50.906;7.248;2023-01-13T15:00:46;14.88;;;2.50;;
43670;SDS011;29267;50.906;7.248;2023-01-13T15:03:13;9.77;;;1.88;;
43670;SDS011;29267;50.906;7.248;2023-01-13T15:05:41;8.25;;;2.28;;
43670;SDS011;29267;50.906;7.248;2023-01-13T15:10:45;14.63;;;1.98;;
43670;SDS011;29267;50.906;7.248;2023-01-13T15:13:52;17.50;;;2.25;;
43670;SDS011;29267;50.906;7.248;2023-01-13T15:16:21;8.45;;;1.38;;
43670;SDS011;29267;50.906;7.248;2023-01-13T15:18:52;11.13;;;1.80;;
43670;SDS011;29267;50.906;7.248;2023-01-13T15:21:18;9.38;;;2.22;;
43670;SDS011;29267;50.906;7.248;2023-01-13T15:23:44;11.18;;;2.05;;
43670;SDS011;29267;50.906;7.248;2023-01-13T15:26:32;5.93;;;2.00;;
43670;SDS011;29267;50.906;7.248;2023-01-13T15:28:57;11.88;;;2.75;;
43670;SDS011;29267;50.906;7.248;2023-01-13T15:31:25;14.07;;;2.15;;
43670;SDS011;29267;50.906;7.248;2023-01-13T15:33:52;14.05;;;2.45;;
43670;SDS011;29267;50.906;7.248;2023-01-13T15:38:48;14.55;;;3.67;;
43670;SDS011;29267;50.906;7.248;2023-01-13T15:41:14;21.65;;;2.28;;
43670;SDS011;29267;50.906;7.248;2023-01-13T15:43:40;9.07;;;2.47;;
43670;SDS011;29267;50.906;7.248;2023-01-13T15:49:04;14.45;;;2.50;;
43670;SDS011;29267;50.906;7.248;2023-01-13T15:51:36;9.52;;;1.88;;
43670;SDS011;29267;50.906;7.248;2023-01-13T15:54:04;9.80;;;2.35;;
43670;SDS011;29267;50.906;7.248;2023-01-13T15:56:30;10.00;;;1.65;;
43670;SDS011;29267;50.906;7.248;2023-01-13T15:59:00;26.55;;;3.28;;
43670;SDS011;29267;50.906;7.248;2023-01-13T16:01:25;15.70;;;2.22;;
43670;SDS011;29267;50.906;7.248;2023-01-13T16:03:51;13.38;;;2.03;;
43670;SDS011;29267;50.906;7.248;2023-01-13T16:06:17;8.82;;;1.85;;
43670;SDS011;29267;50.906;7.248;2023-01-13T16:08:46;11.35;;;2.30;;
43670;SDS011;29267;50.906;7.248;2023-01-13T16:11:12;12.30;;;2.53;;
43670;SDS011;29267;50.906;7.248;2023-01-13T16:13:38;15.55;;;2.90;;
43670;SDS011;29267;50.906;7.248;2023-01-13T16:16:08;15.32;;;2.22;;
43670;SDS011;29267;50.906;7.248;2023-01-13T16:18:41;13.38;;;2.55;;
43670;SDS011;29267;50.906;7.248;2023-01-13T16:21:08;17.08;;;2.45;;
43670;SDS011;29267;50.906;7.248;2023-01-13T16:23:36;14.68;;;2.50;;
43670;SDS011;29267;50.906;7.248;2023-01-13T16:26:03;14.77;;;2.85;;
43670;SDS011;29267;50.906;7.248;2023-01-13T16:28:30;24.75;;;5.03;;
43670;SDS011;29267;50.906;7.248;2023-01-13T16:30:55;21.55;;;3.78;;
43670;SDS011;29267;50.906;7.248;2023-01-13T16:33:21;26.52;;;5.03;;
43670;SDS011;29267;50.906;7.248;2023-01-13T16:35:46;30.15;;;6.53;;
43670;SDS011;29267;50.906;7.248;2023-01-13T16:38:15;25.83;;;8.57;;
43670;SDS011;29267;50.906;7.248;2023-01-13T16:40:41;32.72;;;8.02;;
43670;SDS011;29267;50.906;7.248;2023-01-13T16:43:08;19.67;;;7.00;;
43670;SDS011;29267;50.906;7.248;2023-01-13T16:45:37;26.05;;;5.55;;
43670;SDS011;29267;50.906;7.248;2023-01-13T16:48:02;17.73;;;4.65;;
43670;SDS011;29267;50.906;7.248;2023-01-13T16:53:04;17.77;;;7.63;;
43670;SDS011;29267;50.906;7.248;2023-01-13T16:55:30;26.02;;;7.28;;
43670;SDS011;29267;50.906;7.248;2023-01-13T16:57:56;32.03;;;6.22;;
43670;SDS011;29267;50.906;7.248;2023-01-13T17:00:22;17.42;;;6.35;;
43670;SDS011;29267;50.906;7.248;2023-01-13T17:02:47;26.58;;;5.45;;
43670;SDS011;29267;50.906;7.248;2023-01-13T17:05:13;20.23;;;4.57;;
43670;SDS011;29267;50.906;7.248;2023-01-13T17:07:40;13.88;;;5.13;;
43670;SDS011;29267;50.906;7.248;2023-01-13T17:10:06;28.83;;;6.72;;
43670;SDS011;29267;50.906;7.248;2023-01-13T17:12:36;39.63;;;7.07;;
43670;SDS011;29267;50.906;7.248;2023-01-13T17:15:01;55.38;;;14.52;;
43670;SDS011;29267;50.906;7.248;2023-01-13T17:17:27;26.98;;;6.53;;
43670;SDS011;29267;50.906;7.248;2023-01-13T17:19:53;22.63;;;6.20;;
43670;SDS011;29267;50.906;7.248;2023-01-13T17:22:19;21.63;;;4.32;;
43670;SDS011;29267;50.906;7.248;2023-01-13T17:24:45;23.00;;;3.58;;
43670;SDS011;29267;50.906;7.248;2023-01-13T17:27:11;22.27;;;7.13;;
43670;SDS011;29267;50.906;7.248;2023-01-13T17:29:37;23.77;;;5.90;;
43670;SDS011;29267;50.906;7.248;2023-01-13T17:32:03;19.33;;;4.72;;